Time;durP1;ratioP1;P1;durP2;ratioP2;P2;SDS_P1;SDS_P2;PMS_P1;PMS_P2;Temp;Humidity;BMP_temperature;BMP_pressure;BME280_temperature;BME280_humidity;BME280_pressure;Samples;Min_cycle;Max_cycle;Signal;HPM_P1;HPM_P2
2024/01/20 00:01:13;;;;;;;8.20;3.20;;;;;;;;;;5095510;28;20172;-62
2024/01/20 00:03:39;;;;;;;5.33;3.27;;;;;;;;;;5095062;28;20188;-62
2024/01/20 00:06:05;;;;;;;6.57;2.60;;;;;;;;;;5094955;28;20194;-61
2024/01/20 00:08:31;;;;;;;4.30;2.83;;;;;;;;;;5095531;28;20180;-61
2024/01/20 00:10:57;;;;;;;4.90;2.73;;;;;;;;;;5096625;28;20221;-62
2024/01/20 00:13:23;;;;;;;8.03;2.67;;;;;;;;;;5096044;28;20172;-62
2024/01/20 00:15:50;;;;;;;6.17;2.50;;;;;;;;;;5095573;28;20227;-61
2024/01/20 00:18:16;;;;;;;7.27;2.57;;;;;;;;;;5094998;28;20215;-62
2024/01/20 00:20:44;;;;;;;5.43;2.63;;;;;;;;;;5094837;28;20215;-61
2024/01/20 00:23:10;;;;;;;4.00;2.60;;;;;;;;;;5094964;28;20183;-62
2024/01/20 00:25:36;;;;;;;4.63;2.70;;;;;;;;;;5094113;28;20164;-61
2024/01/20 00:28:03;;;;;;;4.30;2.87;;;;;;;;;;5094475;28;20195;-61
2024/01/20 00:30:29;;;;;;;9.03;2.70;;;;;;;;;;5095622;28;20277;-60
2024/01/20 00:32:55;;;;;;;5.67;2.60;;;;;;;;;;5094949;28;20191;-62
2024/01/20 00:35:21;;;;;;;6.53;2.90;;;;;;;;;;5094587;28;20232;-61
2024/01/20 00:37:47;;;;;;;5.80;2.70;;;;;;;;;;5095393;28;20184;-61
2024/01/20 00:40:13;;;;;;;9.57;3.43;;;;;;;;;;5094402;28;20552;-61
2024/01/20 00:42:39;;;;;;;5.63;3.07;;;;;;;;;;5094719;28;20253;-61
2024/01/20 00:45:05;;;;;;;7.00;3.13;;;;;;;;;;5094745;28;20241;-61
2024/01/20 00:47:31;;;;;;;9.97;3.37;;;;;;;;;;5094902;28;20168;-62
2024/01/20 00:49:57;;;;;;;8.60;3.30;;;;;;;;;;5091696;28;20466;-66
2024/01/20 00:52:23;;;;;;;7.97;2.97;;;;;;;;;;5088781;28;20168;-65
2024/01/20 00:54:50;;;;;;;5.37;2.57;;;;;;;;;;5090347;28;20187;-61
2024/01/20 00:57:16;;;;;;;7.43;3.67;;;;;;;;;;5090394;28;20501;-62
2024/01/20 00:59:44;;;;;;;5.17;3.23;;;;;;;;;;5090788;28;20648;-61
2024/01/20 01:02:10;;;;;;;12.90;3.50;;;;;;;;;;5090126;28;20456;-61
2024/01/20 01:04:36;;;;;;;6.50;3.37;;;;;;;;;;5090068;28;20320;-61
2024/01/20 01:07:02;;;;;;;5.47;3.07;;;;;;;;;;5089861;28;20165;-61
2024/01/20 01:09:28;;;;;;;10.93;3.37;;;;;;;;;;5089681;28;20285;-61
2024/01/20 01:11:54;;;;;;;3.87;3.20;;;;;;;;;;5089441;28;20283;-62
2024/01/20 01:14:20;;;;;;;4.93;3.73;;;;;;;;;;5089804;28;20517;-61
2024/01/20 01:16:47;;;;;;;6.93;3.70;;;;;;;;;;5089006;28;20176;-62
2024/01/20 01:19:15;;;;;;;7.30;3.50;;;;;;;;;;5089482;28;20176;-61
2024/01/20 01:21:41;;;;;;;5.33;3.07;;;;;;;;;;5089588;28;20172;-61
2024/01/20 01:24:07;;;;;;;5.60;3.23;;;;;;;;;;5087243;28;20488;-61
2024/01/20 01:26:33;;;;;;;7.97;3.30;;;;;;;;;;5086736;28;20176;-61
2024/01/20 01:28:59;;;;;;;7.40;3.80;;;;;;;;;;5088527;28;20170;-62
2024/01/20 01:31:25;;;;;;;9.23;3.60;;;;;;;;;;5088948;28;20320;-61
2024/01/20 01:33:51;;;;;;;7.40;4.00;;;;;;;;;;5089984;28;20236;-62
2024/01/20 01:36:17;;;;;;;6.13;3.40;;;;;;;;;;5089899;28;20168;-62
2024/01/20 01:38:43;;;;;;;7.47;4.47;;;;;;;;;;5090634;28;20555;-61
2024/01/20 01:41:09;;;;;;;7.87;3.20;;;;;;;;;;5091660;28;20515;-62
2024/01/20 01:43:35;;;;;;;14.63;4.20;;;;;;;;;;5089660;28;20544;-62
2024/01/20 01:46:01;;;;;;;7.43;3.87;;;;;;;;;;5089448;28;20279;-62
2024/01/20 01:48:28;;;;;;;4.93;3.90;;;;;;;;;;5089334;28;20171;-62
2024/01/20 01:50:54;;;;;;;11.17;4.53;;;;;;;;;;5087812;28;20164;-62
2024/01/20 01:53:20;;;;;;;5.67;3.93;;;;;;;;;;5088895;28;20303;-61
2024/01/20 01:55:47;;;;;;;13.30;4.70;;;;;;;;;;5088586;28;20502;-62
2024/01/20 01:58:13;;;;;;;13.17;4.93;;;;;;;;;;5088100;28;20267;-62
2024/01/20 02:00:39;;;;;;;6.77;4.60;;;;;;;;;;5089684;28;20230;-62
2024/01/20 02:03:08;;;;;;;8.43;5.13;;;;;;;;;;5088919;28;20172;-62
2024/01/20 02:05:33;;;;;;;9.10;5.33;;;;;;;;;;5091321;28;20165;-61
2024/01/20 02:07:59;;;;;;;7.93;4.83;;;;;;;;;;5089362;28;20593;-61
2024/01/20 02:10:25;;;;;;;9.77;4.53;;;;;;;;;;5090222;28;20598;-60
2024/01/20 02:12:52;;;;;;;11.60;5.83;;;;;;;;;;5090195;28;20211;-61
2024/01/20 02:15:18;;;;;;;9.73;5.03;;;;;;;;;;5088634;28;20232;-61
2024/01/20 02:17:53;;;;;;;9.17;5.83;;;;;;;;;;5089243;28;20176;-61
2024/01/20 02:20:20;;;;;;;11.67;5.73;;;;;;;;;;5087689;28;20187;-61
2024/01/20 02:22:46;;;;;;;6.63;5.40;;;;;;;;;;5089612;28;20248;-61
2024/01/20 02:25:12;;;;;;;9.10;5.87;;;;;;;;;;5090419;28;20200;-61
2024/01/20 02:27:38;;;;;;;9.40;5.70;;;;;;;;;;5089630;28;20198;-61
2024/01/20 02:30:04;;;;;;;11.97;5.67;;;;;;;;;;5090702;28;20200;-61
2024/01/20 02:32:30;;;;;;;10.83;6.07;;;;;;;;;;5091191;28;20180;-61
2024/01/20 02:34:56;;;;;;;11.03;6.03;;;;;;;;;;5091110;28;20172;-61
2024/01/20 02:37:22;;;;;;;9.93;6.33;;;;;;;;;;5094406;28;20180;-61
2024/01/20 02:39:48;;;;;;;12.73;5.80;;;;;;;;;;5093444;28;20236;-61
2024/01/20 02:42:13;;;;;;;17.23;7.40;;;;;;;;;;5093952;28;20172;-61
2024/01/20 02:44:40;;;;;;;12.37;7.13;;;;;;;;;;5092816;28;20536;-61
2024/01/20 02:47:06;;;;;;;14.23;6.30;;;;;;;;;;5091655;28;20306;-61
2024/01/20 02:49:32;;;;;;;11.43;6.60;;;;;;;;;;5092679;28;20235;-61
2024/01/20 02:51:58;;;;;;;12.43;6.40;;;;;;;;;;5093203;28;20187;-61
2024/01/20 02:54:24;;;;;;;11.77;6.30;;;;;;;;;;5092720;28;20393;-61
2024/01/20 02:56:50;;;;;;;8.40;5.63;;;;;;;;;;5093165;28;20361;-61
2024/01/20 02:59:16;;;;;;;10.73;6.27;;;;;;;;;;5091638;28;20182;-61
2024/01/20 03:01:42;;;;;;;12.40;7.00;;;;;;;;;;5093208;28;20198;-62
2024/01/20 03:04:08;;;;;;;15.83;7.40;;;;;;;;;;5092691;28;20204;-61
2024/01/20 03:06:34;;;;;;;11.73;7.10;;;;;;;;;;5092735;28;20186;-61
2024/01/20 03:09:00;;;;;;;10.27;6.50;;;;;;;;;;5092511;28;20473;-62
2024/01/20 03:11:26;;;;;;;12.47;6.70;;;;;;;;;;5092128;28;20204;-61
2024/01/20 03:13:52;;;;;;;9.53;6.67;;;;;;;;;;5090024;28;20239;-62
2024/01/20 03:16:18;;;;;;;10.80;6.47;;;;;;;;;;5091072;28;20175;-62
2024/01/20 03:18:44;;;;;;;12.43;6.27;;;;;;;;;;5090380;28;20241;-61
2024/01/20 03:21:10;;;;;;;9.33;6.70;;;;;;;;;;5091737;28;20168;-62
2024/01/20 03:23:36;;;;;;;11.63;6.77;;;;;;;;;;5089512;28;20204;-60
2024/01/20 03:26:10;;;;;;;10.57;6.90;;;;;;;;;;5089480;28;20225;-62
2024/01/20 03:28:36;;;;;;;11.30;6.90;;;;;;;;;;5088973;28;20497;-62
2024/01/20 03:31:02;;;;;;;12.50;6.70;;;;;;;;;;5088222;28;20199;-62
2024/01/20 03:33:28;;;;;;;13.33;7.00;;;;;;;;;;5090608;28;20172;-61
2024/01/20 03:35:54;;;;;;;13.17;7.57;;;;;;;;;;5092931;28;20186;-62
2024/01/20 03:38:20;;;;;;;10.80;6.63;;;;;;;;;;5092456;28;20811;-62
2024/01/20 03:40:46;;;;;;;13.50;7.63;;;;;;;;;;5091557;28;20176;-62
2024/01/20 03:43:12;;;;;;;11.73;6.77;;;;;;;;;;5093793;28;20266;-61
2024/01/20 03:45:42;;;;;;;12.60;6.70;;;;;;;;;;5091169;28;20515;-62
2024/01/20 03:48:08;;;;;;;12.70;7.30;;;;;;;;;;5093044;28;20164;-61
2024/01/20 03:50:34;;;;;;;13.53;7.33;;;;;;;;;;5093105;28;20397;-62
2024/01/20 03:53:00;;;;;;;11.93;6.83;;;;;;;;;;5092018;28;20512;-62
2024/01/20 03:55:26;;;;;;;9.80;7.50;;;;;;;;;;5093675;28;20237;-61
2024/01/20 03:57:53;;;;;;;14.17;7.23;;;;;;;;;;5091776;28;20179;-62
2024/01/20 04:00:19;;;;;;;12.57;6.93;;;;;;;;;;5091719;28;20176;-61
2024/01/20 04:02:45;;;;;;;14.40;7.60;;;;;;;;;;5090996;28;20176;-61
2024/01/20 04:05:11;;;;;;;10.30;6.73;;;;;;;;;;5091165;28;20521;-61
2024/01/20 04:07:37;;;;;;;17.27;7.43;;;;;;;;;;5091365;28;20179;-61
2024/01/20 04:10:04;;;;;;;13.40;7.03;;;;;;;;;;5091005;28;20172;-61
2024/01/20 04:12:30;;;;;;;10.90;7.83;;;;;;;;;;5090540;28;20752;-61
2024/01/20 04:14:56;;;;;;;14.63;8.90;;;;;;;;;;5090923;28;20227;-61
2024/01/20 04:17:22;;;;;;;17.67;9.10;;;;;;;;;;5092396;28;20316;-61
2024/01/20 04:19:48;;;;;;;15.17;9.07;;;;;;;;;;5093600;28;20179;-62
2024/01/20 04:22:14;;;;;;;10.73;8.07;;;;;;;;;;5093134;28;20168;-62
2024/01/20 04:24:40;;;;;;;12.93;8.17;;;;;;;;;;5092137;28;20218;-62
2024/01/20 04:27:06;;;;;;;12.97;8.47;;;;;;;;;;5091094;28;20360;-61
2024/01/20 04:29:32;;;;;;;17.60;9.83;;;;;;;;;;5092146;28;20190;-61
2024/01/20 04:31:58;;;;;;;19.87;11.37;;;;;;;;;;5091876;28;20171;-62
2024/01/20 04:34:23;;;;;;;19.97;9.87;;;;;;;;;;5091101;28;20175;-61
2024/01/20 04:36:49;;;;;;;15.37;11.53;;;;;;;;;;5093061;28;20168;-61
2024/01/20 04:39:15;;;;;;;17.53;9.53;;;;;;;;;;5091070;28;20172;-62
2024/01/20 04:41:41;;;;;;;14.07;9.63;;;;;;;;;;5090700;28;20257;-62
2024/01/20 04:47:11;;;;;;;14.80;9.00;;;;;;;;;;5090814;28;20197;-61
2024/01/20 04:49:37;;;;;;;12.23;8.87;;;;;;;;;;5089768;28;20298;-61
2024/01/20 04:52:03;;;;;;;20.63;11.03;;;;;;;;;;5089830;28;20156;-62
2024/01/20 04:54:29;;;;;;;16.60;9.57;;;;;;;;;;5090983;28;20309;-62
2024/01/20 04:56:57;;;;;;;15.30;10.60;;;;;;;;;;5089318;28;20183;-61
2024/01/20 04:59:23;;;;;;;14.57;10.13;;;;;;;;;;5089610;28;20240;-62
2024/01/20 05:01:49;;;;;;;20.33;10.63;;;;;;;;;;5090230;28;20172;-62
2024/01/20 05:04:15;;;;;;;16.07;11.03;;;;;;;;;;5090339;28;20207;-62
2024/01/20 05:06:45;;;;;;;17.37;11.50;;;;;;;;;;5091011;28;20498;-61
2024/01/20 05:09:11;;;;;;;15.40;11.27;;;;;;;;;;5088995;28;20474;-61
2024/01/20 05:11:37;;;;;;;19.23;10.70;;;;;;;;;;5090532;28;20178;-61
2024/01/20 05:14:03;;;;;;;13.87;10.63;;;;;;;;;;5096074;28;20218;-61
2024/01/20 05:16:29;;;;;;;21.77;11.63;;;;;;;;;;5093945;28;20273;-61
2024/01/20 05:18:55;;;;;;;14.67;10.80;;;;;;;;;;5092886;28;20235;-61
2024/01/20 05:21:22;;;;;;;13.13;10.40;;;;;;;;;;5111262;28;20285;-61
2024/01/20 05:23:48;;;;;;;18.13;11.53;;;;;;;;;;5110894;28;20203;-62
2024/01/20 05:26:14;;;;;;;17.07;10.60;;;;;;;;;;5092746;28;20205;-62
2024/01/20 05:28:41;;;;;;;18.27;10.87;;;;;;;;;;5093164;28;20206;-61
2024/01/20 05:31:07;;;;;;;12.20;9.63;;;;;;;;;;5092041;28;20164;-61
2024/01/20 05:33:32;;;;;;;13.63;10.10;;;;;;;;;;5093138;28;20195;-61
2024/01/20 05:35:59;;;;;;;16.40;12.20;;;;;;;;;;5111561;28;20168;-61
2024/01/20 05:38:25;;;;;;;15.40;11.13;;;;;;;;;;5093029;28;20203;-61
2024/01/20 05:40:51;;;;;;;15.80;10.57;;;;;;;;;;5110854;28;20210;-61
2024/01/20 05:43:16;;;;;;;14.27;10.57;;;;;;;;;;5111170;28;20492;-61
2024/01/20 05:45:42;;;;;;;15.17;10.20;;;;;;;;;;5092409;28;20452;-61
2024/01/20 05:48:08;;;;;;;18.90;11.13;;;;;;;;;;5093461;28;20175;-61
2024/01/20 05:50:34;;;;;;;18.07;10.97;;;;;;;;;;5093743;28;20167;-61
2024/01/20 05:53:00;;;;;;;13.30;10.13;;;;;;;;;;5092631;28;20275;-61
2024/01/20 05:55:26;;;;;;;15.27;10.30;;;;;;;;;;5093867;28;20186;-61
2024/01/20 05:57:53;;;;;;;15.63;11.10;;;;;;;;;;5111742;28;20179;-61
2024/01/20 06:00:21;;;;;;;17.80;11.47;;;;;;;;;;5110856;28;20585;-61
2024/01/20 06:02:47;;;;;;;14.83;10.20;;;;;;;;;;5111056;28;20163;-61
2024/01/20 06:05:13;;;;;;;15.47;9.93;;;;;;;;;;5092921;28;20285;-61
2024/01/20 06:07:39;;;;;;;21.90;10.67;;;;;;;;;;5108330;28;20262;-61
2024/01/20 06:10:05;;;;;;;19.17;10.93;;;;;;;;;;5095166;28;20175;-61
2024/01/20 06:12:31;;;;;;;17.80;10.37;;;;;;;;;;5095754;28;20423;-61
2024/01/20 06:14:57;;;;;;;13.43;9.77;;;;;;;;;;5092522;28;20265;-61
2024/01/20 06:17:24;;;;;;;16.63;10.30;;;;;;;;;;5092790;28;20172;-61
2024/01/20 06:19:50;;;;;;;23.43;10.70;;;;;;;;;;5093025;28;20176;-60
2024/01/20 06:22:15;;;;;;;26.47;10.97;;;;;;;;;;5093149;28;20179;-61
2024/01/20 06:24:41;;;;;;;15.30;10.77;;;;;;;;;;5093818;28;20308;-61
2024/01/20 06:27:07;;;;;;;14.17;10.43;;;;;;;;;;5093348;28;20236;-61
2024/01/20 06:29:33;;;;;;;16.13;10.10;;;;;;;;;;5093654;28;20199;-62
2024/01/20 06:31:59;;;;;;;15.63;11.33;;;;;;;;;;5094429;28;20443;-61
2024/01/20 06:34:25;;;;;;;19.47;10.83;;;;;;;;;;5094698;28;20221;-61
2024/01/20 06:36:51;;;;;;;24.30;11.40;;;;;;;;;;5095045;28;20172;-61
2024/01/20 06:39:17;;;;;;;19.07;10.30;;;;;;;;;;5093608;28;20184;-61
2024/01/20 06:41:45;;;;;;;13.60;9.93;;;;;;;;;;5093372;28;20176;-62
2024/01/20 06:44:11;;;;;;;16.30;9.97;;;;;;;;;;5094828;28;20210;-62
2024/01/20 06:46:37;;;;;;;16.73;11.13;;;;;;;;;;5095012;28;20708;-61
2024/01/20 06:49:03;;;;;;;16.50;10.13;;;;;;;;;;5093697;28;20172;-62
2024/01/20 06:51:29;;;;;;;25.83;11.87;;;;;;;;;;5092805;28;20160;-61
2024/01/20 06:53:58;;;;;;;17.40;11.43;;;;;;;;;;5094092;28;20267;-62
2024/01/20 06:56:25;;;;;;;28.00;11.87;;;;;;;;;;5091889;28;20176;-62
2024/01/20 06:58:55;;;;;;;19.50;11.00;;;;;;;;;;5091455;28;20789;-62
2024/01/20 07:01:22;;;;;;;19.63;10.67;;;;;;;;;;5092974;28;20176;-61
2024/01/20 07:03:48;;;;;;;18.50;10.33;;;;;;;;;;5092661;28;20196;-59
2024/01/20 07:06:14;;;;;;;14.90;9.97;;;;;;;;;;5092645;28;20501;-61
2024/01/20 07:08:40;;;;;;;15.30;11.67;;;;;;;;;;5092797;28;20168;-62
2024/01/20 07:11:09;;;;;;;13.93;10.53;;;;;;;;;;5093429;28;20539;-62
2024/01/20 07:13:37;;;;;;;21.63;11.77;;;;;;;;;;5093105;28;20178;-62
2024/01/20 07:16:08;;;;;;;19.00;10.53;;;;;;;;;;5095147;28;20232;-62
2024/01/20 07:18:33;;;;;;;16.47;10.03;;;;;;;;;;5112141;28;20451;-61
2024/01/20 07:20:59;;;;;;;18.73;11.07;;;;;;;;;;5112544;28;20164;-62
2024/01/20 07:23:25;;;;;;;19.23;11.20;;;;;;;;;;5093843;28;20175;-62
2024/01/20 07:25:51;;;;;;;15.17;10.57;;;;;;;;;;5112569;28;20468;-61
2024/01/20 07:28:18;;;;;;;19.13;10.73;;;;;;;;;;5093102;28;20540;-61
2024/01/20 07:30:44;;;;;;;16.77;10.63;;;;;;;;;;5093564;28;20426;-61
2024/01/20 07:33:09;;;;;;;19.60;10.20;;;;;;;;;;5112610;28;20167;-62
2024/01/20 07:35:35;;;;;;;19.83;11.13;;;;;;;;;;5094947;28;20168;-61
2024/01/20 07:38:01;;;;;;;17.20;10.93;;;;;;;;;;5111841;28;20195;-62
2024/01/20 07:40:27;;;;;;;17.70;10.97;;;;;;;;;;5092751;28;20175;-61
2024/01/20 07:42:53;;;;;;;21.70;10.90;;;;;;;;;;5091995;28;20178;-61
2024/01/20 07:45:19;;;;;;;17.23;10.97;;;;;;;;;;5093209;28;20483;-62
2024/01/20 07:47:46;;;;;;;18.97;11.03;;;;;;;;;;5111480;28;20203;-61
2024/01/20 07:50:12;;;;;;;15.50;9.50;;;;;;;;;;5091979;28;20358;-61
2024/01/20 07:52:38;;;;;;;23.60;11.53;;;;;;;;;;5092122;28;20203;-61
2024/01/20 07:55:04;;;;;;;17.70;11.13;;;;;;;;;;5109221;28;20236;-61
2024/01/20 07:57:30;;;;;;;26.63;11.47;;;;;;;;;;5109373;28;20175;-62
2024/01/20 07:59:56;;;;;;;19.40;10.87;;;;;;;;;;5089283;28;20323;-61
2024/01/20 08:02:22;;;;;;;22.13;11.23;;;;;;;;;;5108118;28;20260;-61
2024/01/20 08:04:48;;;;;;;20.27;11.67;;;;;;;;;;5089263;28;20274;-62
2024/01/20 08:07:14;;;;;;;18.37;11.63;;;;;;;;;;5088596;28;20326;-61
2024/01/20 08:09:40;;;;;;;19.00;12.43;;;;;;;;;;5090298;28;20186;-61
2024/01/20 08:12:06;;;;;;;18.33;11.37;;;;;;;;;;5090094;28;20543;-62
2024/01/20 08:14:32;;;;;;;23.00;10.87;;;;;;;;;;5087991;28;20395;-63
2024/01/20 08:16:57;;;;;;;22.17;11.10;;;;;;;;;;5088072;28;20179;-61
2024/01/20 08:19:23;;;;;;;21.53;11.30;;;;;;;;;;5088884;28;20359;-61
2024/01/20 08:21:50;;;;;;;21.77;12.30;;;;;;;;;;5088560;28;20171;-61
2024/01/20 08:24:16;;;;;;;19.10;11.50;;;;;;;;;;5088362;28;20499;-61
2024/01/20 08:26:42;;;;;;;20.23;11.30;;;;;;;;;;5086658;28;20531;-61
2024/01/20 08:29:08;;;;;;;22.50;11.90;;;;;;;;;;5086877;28;20577;-61
2024/01/20 08:31:34;;;;;;;19.37;10.53;;;;;;;;;;5089573;28;20566;-62
2024/01/20 08:34:02;;;;;;;19.97;11.77;;;;;;;;;;5087208;28;20259;-62
2024/01/20 08:36:28;;;;;;;19.53;11.30;;;;;;;;;;5088612;28;20673;-61
2024/01/20 08:38:54;;;;;;;23.80;12.30;;;;;;;;;;5086248;28;20406;-61
2024/01/20 08:41:20;;;;;;;23.57;11.37;;;;;;;;;;5087264;28;20176;-61
2024/01/20 08:43:46;;;;;;;19.90;11.47;;;;;;;;;;5084338;28;20356;-61
2024/01/20 08:46:12;;;;;;;20.27;10.80;;;;;;;;;;5085008;28;20172;-61
2024/01/20 08:48:38;;;;;;;23.47;12.10;;;;;;;;;;5084231;28;20228;-62
2024/01/20 08:51:04;;;;;;;25.20;11.83;;;;;;;;;;5085253;28;20499;-61
2024/01/20 08:53:32;;;;;;;19.17;11.00;;;;;;;;;;5086216;28;20562;-61
2024/01/20 08:55:58;;;;;;;20.80;11.97;;;;;;;;;;5085836;28;20180;-61
2024/01/20 08:58:24;;;;;;;23.70;12.97;;;;;;;;;;5085750;28;20160;-61
2024/01/20 09:00:50;;;;;;;23.27;11.57;;;;;;;;;;5085080;28;20446;-62
2024/01/20 09:03:16;;;;;;;27.97;12.03;;;;;;;;;;5083163;28;20267;-62
2024/01/20 09:05:42;;;;;;;22.97;11.40;;;;;;;;;;5085815;28;20195;-62
2024/01/20 09:08:10;;;;;;;21.80;11.93;;;;;;;;;;5085271;28;20180;-61
2024/01/20 09:10:36;;;;;;;26.37;12.40;;;;;;;;;;5083883;28;20183;-61
2024/01/20 09:13:02;;;;;;;22.60;11.93;;;;;;;;;;5084278;28;20221;-61
2024/01/20 09:15:28;;;;;;;21.40;10.97;;;;;;;;;;5086200;28;20606;-61
2024/01/20 09:17:54;;;;;;;22.50;11.13;;;;;;;;;;5087148;28;20562;-61
2024/01/20 09:20:20;;;;;;;19.87;11.40;;;;;;;;;;5088091;28;20257;-61
2024/01/20 09:22:47;;;;;;;19.53;10.50;;;;;;;;;;5086250;28;20207;-61
2024/01/20 09:25:13;;;;;;;23.37;11.90;;;;;;;;;;5087266;28;20327;-61
2024/01/20 09:27:38;;;;;;;20.47;12.13;;;;;;;;;;5084958;28;20167;-61
2024/01/20 09:30:05;;;;;;;21.23;12.13;;;;;;;;;;5086173;28;20168;-61
2024/01/20 09:32:33;;;;;;;24.60;11.70;;;;;;;;;;5085510;28;20206;-61
2024/01/20 09:35:00;;;;;;;24.13;12.53;;;;;;;;;;5085667;28;20174;-61
2024/01/20 09:37:26;;;;;;;23.87;11.90;;;;;;;;;;5085700;28;20425;-61
2024/01/20 09:39:52;;;;;;;18.80;11.20;;;;;;;;;;5084639;28;20339;-61
2024/01/20 09:42:18;;;;;;;21.00;11.57;;;;;;;;;;5082118;28;20439;-61
2024/01/20 09:44:44;;;;;;;28.50;13.23;;;;;;;;;;5085992;28;20222;-61
2024/01/20 09:47:12;;;;;;;22.70;12.23;;;;;;;;;;5088092;28;20172;-61
2024/01/20 09:49:38;;;;;;;17.50;12.10;;;;;;;;;;5090572;28;20377;-60
2024/01/20 09:52:12;;;;;;;23.17;12.07;;;;;;;;;;5088259;28;20168;-61
2024/01/20 09:54:47;;;;;;;20.87;11.50;;;;;;;;;;5089994;28;20470;-61
2024/01/20 09:57:14;;;;;;;20.50;11.83;;;;;;;;;;5092785;28;20369;-61
2024/01/20 09:59:42;;;;;;;22.57;13.33;;;;;;;;;;5091724;28;20475;-61
2024/01/20 10:02:11;;;;;;;22.03;12.43;;;;;;;;;;5091064;28;20649;-61
2024/01/20 10:04:40;;;;;;;21.90;11.53;;;;;;;;;;5088568;28;20407;-62
2024/01/20 10:07:06;;;;;;;21.30;12.30;;;;;;;;;;5088188;28;20358;-62
2024/01/20 10:09:32;;;;;;;21.83;12.37;;;;;;;;;;5084906;28;20351;-61
2024/01/20 10:11:59;;;;;;;21.00;11.80;;;;;;;;;;5086887;28;20195;-62
2024/01/20 10:14:25;;;;;;;22.30;11.77;;;;;;;;;;5087959;28;20224;-61
2024/01/20 10:16:51;;;;;;;20.17;11.77;;;;;;;;;;5089590;28;20183;-61
2024/01/20 10:19:17;;;;;;;23.10;12.47;;;;;;;;;;5089175;28;20537;-61
2024/01/20 10:21:43;;;;;;;23.60;13.00;;;;;;;;;;5088612;28;20176;-61
2024/01/20 10:24:09;;;;;;;19.20;11.63;;;;;;;;;;5089112;28;20360;-61
2024/01/20 10:26:44;;;;;;;20.57;13.27;;;;;;;;;;5087655;28;20168;-62
2024/01/20 10:29:10;;;;;;;23.07;11.40;;;;;;;;;;5089027;28;20266;-61
2024/01/20 10:31:36;;;;;;;20.27;11.80;;;;;;;;;;5086008;28;20248;-61
2024/01/20 10:34:02;;;;;;;18.07;11.00;;;;;;;;;;5086802;28;20458;-62
2024/01/20 10:36:28;;;;;;;19.07;11.60;;;;;;;;;;5085748;28;20200;-61
2024/01/20 10:38:54;;;;;;;17.27;11.50;;;;;;;;;;5086561;28;20577;-61
2024/01/20 10:41:24;;;;;;;18.80;10.90;;;;;;;;;;5087957;28;20607;-61
2024/01/20 10:43:54;;;;;;;18.77;11.90;;;;;;;;;;5088470;28;20188;-61
2024/01/20 10:46:24;;;;;;;20.60;11.53;;;;;;;;;;5084288;28;20198;-61
2024/01/20 10:48:53;;;;;;;21.43;11.37;;;;;;;;;;5086909;28;20168;-61
2024/01/20 10:51:22;;;;;;;24.90;11.27;;;;;;;;;;5086230;28;20168;-61
2024/01/20 10:53:49;;;;;;;20.20;11.23;;;;;;;;;;5086059;28;20187;-60
2024/01/20 10:56:16;;;;;;;19.40;11.47;;;;;;;;;;5085201;28;20391;-61
2024/01/20 10:58:45;;;;;;;21.13;11.23;;;;;;;;;;5083685;28;20176;-61
2024/01/20 11:01:11;;;;;;;20.23;11.10;;;;;;;;;;5086681;28;20222;-61
2024/01/20 11:03:38;;;;;;;19.13;9.97;;;;;;;;;;5086466;28;20492;-61
2024/01/20 11:06:04;;;;;;;18.47;9.87;;;;;;;;;;5086162;28;20164;-61
2024/01/20 11:08:31;;;;;;;17.37;9.60;;;;;;;;;;5085118;28;20175;-61
2024/01/20 11:10:57;;;;;;;20.57;11.40;;;;;;;;;;5085834;28;20210;-61
2024/01/20 11:13:24;;;;;;;17.30;10.00;;;;;;;;;;5087349;28;20514;-61
2024/01/20 11:15:51;;;;;;;23.40;10.60;;;;;;;;;;5088108;28;20244;-61
2024/01/20 11:18:20;;;;;;;18.17;9.40;;;;;;;;;;5085088;28;20184;-61
2024/01/20 11:20:58;;;;;;;18.43;10.00;;;;;;;;;;5086608;28;20178;-61
2024/01/20 11:23:25;;;;;;;14.83;9.30;;;;;;;;;;5084297;28;20177;-61
2024/01/20 11:25:51;;;;;;;18.40;9.93;;;;;;;;;;5085766;28;20208;-61
2024/01/20 11:28:30;;;;;;;15.27;8.83;;;;;;;;;;5084972;28;20186;-62
2024/01/20 11:30:56;;;;;;;16.27;9.57;;;;;;;;;;5085814;28;20442;-61
2024/01/20 11:33:22;;;;;;;20.17;10.27;;;;;;;;;;5085594;28;20547;-61
2024/01/20 11:35:48;;;;;;;19.60;8.73;;;;;;;;;;5085889;28;20544;-61
2024/01/20 11:38:15;;;;;;;18.63;10.03;;;;;;;;;;5085284;28;20783;-61
2024/01/20 11:40:41;;;;;;;22.03;9.47;;;;;;;;;;5087046;28;20273;-62
2024/01/20 11:43:10;;;;;;;14.80;9.50;;;;;;;;;;5092681;28;20222;-61
2024/01/20 11:45:36;;;;;;;20.53;10.03;;;;;;;;;;5092487;28;20311;-61
2024/01/20 11:48:02;;;;;;;16.57;8.47;;;;;;;;;;5092874;28;20188;-60
2024/01/20 11:50:28;;;;;;;17.80;9.07;;;;;;;;;;5088352;28;20527;-61
2024/01/20 11:52:54;;;;;;;17.80;9.60;;;;;;;;;;5091485;28;20658;-61
2024/01/20 11:55:20;;;;;;;15.83;9.03;;;;;;;;;;5092263;28;20218;-61
2024/01/20 11:57:46;;;;;;;15.30;9.87;;;;;;;;;;5090990;28;20172;-61
2024/01/20 12:00:14;;;;;;;16.07;9.00;;;;;;;;;;5089452;28;20226;-61
2024/01/20 12:02:46;;;;;;;16.73;9.00;;;;;;;;;;5089305;28;20198;-61
2024/01/20 12:05:12;;;;;;;20.60;9.37;;;;;;;;;;5088892;28;20210;-62
2024/01/20 12:07:38;;;;;;;17.30;8.53;;;;;;;;;;5087034;28;20164;-60
2024/01/20 12:10:04;;;;;;;17.37;9.87;;;;;;;;;;5088783;28;20172;-60
2024/01/20 12:12:30;;;;;;;15.07;9.03;;;;;;;;;;5089307;28;20175;-60
2024/01/20 12:14:56;;;;;;;18.07;8.83;;;;;;;;;;5103151;28;20528;-61
2024/01/20 12:17:22;;;;;;;12.27;8.50;;;;;;;;;;5094971;28;20441;-60
2024/01/20 12:19:49;;;;;;;13.87;8.07;;;;;;;;;;5095592;28;20182;-61
2024/01/20 12:22:15;;;;;;;14.13;7.90;;;;;;;;;;5096571;28;20176;-63
2024/01/20 12:24:48;;;;;;;20.67;10.03;;;;;;;;;;5096643;28;20313;-61
2024/01/20 12:27:15;;;;;;;19.13;10.27;;;;;;;;;;5112827;28;20213;-60
2024/01/20 12:29:41;;;;;;;17.03;9.03;;;;;;;;;;5112301;28;20174;-60
2024/01/20 12:32:08;;;;;;;22.37;10.27;;;;;;;;;;5095913;28;20172;-60
2024/01/20 12:34:34;;;;;;;15.20;8.67;;;;;;;;;;5096010;28;20171;-60
2024/01/20 12:37:00;;;;;;;19.73;10.03;;;;;;;;;;5095026;28;20448;-60
2024/01/20 12:39:26;;;;;;;15.63;9.67;;;;;;;;;;5111707;28;20176;-60
2024/01/20 12:41:53;;;;;;;15.90;9.47;;;;;;;;;;5088199;28;20286;-60
2024/01/20 12:44:20;;;;;;;16.97;10.07;;;;;;;;;;5088265;28;20363;-62
2024/01/20 12:46:46;;;;;;;18.27;9.13;;;;;;;;;;5105347;28;20160;-61
2024/01/20 12:49:12;;;;;;;16.83;9.37;;;;;;;;;;5087581;28;20369;-61
2024/01/20 12:51:39;;;;;;;15.93;9.40;;;;;;;;;;5086836;28;20171;-61
2024/01/20 12:54:05;;;;;;;19.27;10.07;;;;;;;;;;5106432;28;20221;-61
2024/01/20 12:56:31;;;;;;;26.07;10.23;;;;;;;;;;5104919;28;20373;-60
2024/01/20 12:58:57;;;;;;;20.30;10.00;;;;;;;;;;5088242;28;20272;-61
2024/01/20 13:01:26;;;;;;;19.83;9.17;;;;;;;;;;5087287;28;20198;-60
2024/01/20 13:03:52;;;;;;;21.43;10.03;;;;;;;;;;5087755;28;20288;-60
2024/01/20 13:06:19;;;;;;;19.03;10.20;;;;;;;;;;5088205;28;20459;-60
2024/01/20 13:08:45;;;;;;;15.67;9.77;;;;;;;;;;5089210;28;20524;-60
2024/01/20 13:11:11;;;;;;;19.63;11.60;;;;;;;;;;5089192;28;20182;-61
2024/01/20 13:13:43;;;;;;;16.53;9.80;;;;;;;;;;5089263;28;20171;-60
2024/01/20 13:16:09;;;;;;;18.17;10.53;;;;;;;;;;5088986;28;20251;-60
2024/01/20 13:18:35;;;;;;;18.67;10.23;;;;;;;;;;5088138;28;20362;-60
2024/01/20 13:21:01;;;;;;;21.10;9.50;;;;;;;;;;5088308;28;20163;-60
2024/01/20 13:23:27;;;;;;;18.63;9.33;;;;;;;;;;5086376;28;20226;-61
2024/01/20 13:25:55;;;;;;;21.87;10.03;;;;;;;;;;5090108;28;20643;-60
2024/01/20 13:28:23;;;;;;;18.27;9.53;;;;;;;;;;5093776;28;20160;-60
2024/01/20 13:30:49;;;;;;;16.20;10.37;;;;;;;;;;5090333;28;20194;-60
2024/01/20 13:33:15;;;;;;;16.23;9.30;;;;;;;;;;5082447;28;20603;-60
2024/01/20 13:35:41;;;;;;;17.57;10.17;;;;;;;;;;5082171;28;20179;-60
2024/01/20 13:38:08;;;;;;;18.77;10.43;;;;;;;;;;5081684;28;20179;-60
2024/01/20 13:40:34;;;;;;;20.97;9.63;;;;;;;;;;5082470;28;20337;-60
2024/01/20 13:43:00;;;;;;;19.00;9.43;;;;;;;;;;5084055;28;20164;-60
2024/01/20 13:45:26;;;;;;;18.90;9.57;;;;;;;;;;5084897;28;20207;-60
2024/01/20 13:47:52;;;;;;;18.57;9.27;;;;;;;;;;5087685;28;20167;-61
2024/01/20 13:50:18;;;;;;;16.03;9.57;;;;;;;;;;5086877;28;20558;-60
2024/01/20 13:52:43;;;;;;;21.20;10.07;;;;;;;;;;5083673;28;20336;-60
2024/01/20 13:55:09;;;;;;;18.60;9.03;;;;;;;;;;5085743;28;20180;-60
2024/01/20 13:57:35;;;;;;;15.53;8.93;;;;;;;;;;5084966;28;20388;-59
2024/01/20 14:00:02;;;;;;;16.20;9.60;;;;;;;;;;5082403;28;20164;-60
2024/01/20 14:02:28;;;;;;;18.20;8.50;;;;;;;;;;5081305;28;20547;-60
2024/01/20 14:04:56;;;;;;;14.83;9.07;;;;;;;;;;5080987;28;20762;-60
2024/01/20 14:07:22;;;;;;;18.30;9.43;;;;;;;;;;5078823;28;20172;-60
2024/01/20 14:09:48;;;;;;;18.93;9.97;;;;;;;;;;5080260;28;20173;-60
2024/01/20 14:12:14;;;;;;;16.53;9.63;;;;;;;;;;5080352;28;20172;-60
2024/01/20 14:14:40;;;;;;;16.93;10.10;;;;;;;;;;5079921;28;20227;-60
2024/01/20 14:17:06;;;;;;;16.70;9.30;;;;;;;;;;5082815;28;20176;-60
2024/01/20 14:19:32;;;;;;;17.40;9.00;;;;;;;;;;5084668;28;20182;-60
2024/01/20 14:21:58;;;;;;;13.87;9.13;;;;;;;;;;5082074;28;20172;-59
2024/01/20 14:24:24;;;;;;;21.70;10.17;;;;;;;;;;5083711;28;20219;-59